Time;durP1;ratioP1;P1;durP2;ratioP2;P2;SDS_P1;SDS_P2;PMS_P1;PMS_P2;Temp;Humidity;BMP_temperature;BMP_pressure;BME280_temperature;BME280_humidity;BME280_pressure;Samples;Min_cycle;Max_cycle;Signal;HPM_P1;HPM_P2
2021/06/21 00:00:20;;;;;;;21.17;8.00;;;;;;;;;;1497393;39;20299;-61
2021/06/21 00:01:35;;;;;;;23.83;8.10;;;;;;;;;;1497338;39;20384;-61
2021/06/21 00:02:38;;;;;;;21.13;7.40;;;;;;;;;;1497577;39;20035;-62
2021/06/21 00:03:39;;;;;;;19.60;7.80;;;;;;;;;;1497328;39;20050;-62
2021/06/21 00:04:41;;;;;;;21.48;7.93;;;;;;;;;;1497577;39;20035;-62
2021/06/21 00:05:42;;;;;;;19.70;7.50;;;;;;;;;;1497285;39;20371;-62
2021/06/21 00:06:44;;;;;;;21.35;7.93;;;;;;;;;;1497425;39;20095;-60
2021/06/21 00:07:47;;;;;;;16.95;7.90;;;;;;;;;;1497351;39;20030;-62
2021/06/21 00:08:48;;;;;;;19.90;8.07;;;;;;;;;;1497249;39;20326;-61
2021/06/21 00:09:49;;;;;;;19.92;7.47;;;;;;;;;;1497226;39;20035;-62
2021/06/21 00:10:51;;;;;;;15.13;6.90;;;;;;;;;;1497349;39;20029;-60
2021/06/21 00:11:52;;;;;;;22.83;7.70;;;;;;;;;;1496895;39;20024;-60
2021/06/21 00:12:54;;;;;;;16.45;7.28;;;;;;;;;;1496867;39;20298;-60
2021/06/21 00:13:55;;;;;;;20.05;7.55;;;;;;;;;;1497344;39;20035;-60
2021/06/21 00:14:56;;;;;;;17.92;7.07;;;;;;;;;;1497575;39;20282;-62
2021/06/21 00:15:57;;;;;;;18.98;7.63;;;;;;;;;;1497253;39;20043;-62
2021/06/21 00:16:58;;;;;;;18.65;6.45;;;;;;;;;;1497234;39;20027;-60
2021/06/21 00:18:00;;;;;;;20.67;7.10;;;;;;;;;;1497453;39;20100;-62
2021/06/21 00:19:01;;;;;;;21.15;6.50;;;;;;;;;;1497297;39;20108;-61
2021/06/21 00:20:04;;;;;;;19.88;6.15;;;;;;;;;;1497333;39;20027;-61
2021/06/21 00:21:06;;;;;;;17.80;6.00;;;;;;;;;;1497198;39;20023;-61
2021/06/21 00:22:07;;;;;;;18.90;6.30;;;;;;;;;;1497191;39;20410;-61
2021/06/21 00:23:10;;;;;;;16.77;6.38;;;;;;;;;;1497347;39;20030;-61
2021/06/21 00:24:11;;;;;;;15.52;5.60;;;;;;;;;;1497391;39;20030;-62
2021/06/21 00:25:14;;;;;;;18.67;6.38;;;;;;;;;;1497287;39;20383;-60
2021/06/21 00:26:15;;;;;;;13.55;6.25;;;;;;;;;;1497469;39;20023;-60
2021/06/21 00:27:17;;;;;;;18.80;6.57;;;;;;;;;;1497413;39;20035;-62
2021/06/21 00:28:18;;;;;;;18.88;6.75;;;;;;;;;;1497118;39;20028;-62
2021/06/21 00:29:21;;;;;;;17.80;6.68;;;;;;;;;;1497290;39;20045;-61
2021/06/21 00:30:24;;;;;;;15.27;6.85;;;;;;;;;;1497330;39;20028;-61
2021/06/21 00:31:25;;;;;;;17.17;6.70;;;;;;;;;;1497361;39;20031;-62
2021/06/21 00:32:26;;;;;;;17.85;7.65;;;;;;;;;;1497226;39;20079;-62
2021/06/21 00:33:27;;;;;;;19.25;7.47;;;;;;;;;;1497314;39;20047;-61
2021/06/21 00:34:38;;;;;;;19.23;7.20;;;;;;;;;;1497182;39;20027;-62
2021/06/21 00:35:39;;;;;;;15.77;6.28;;;;;;;;;;1497465;39;20031;-62
2021/06/21 00:36:41;;;;;;;17.40;6.40;;;;;;;;;;1497484;39;20027;-62
2021/06/21 00:37:43;;;;;;;21.50;7.07;;;;;;;;;;1497150;39;20288;-61
2021/06/21 00:38:46;;;;;;;14.57;6.18;;;;;;;;;;1497379;39;20032;-60
2021/06/21 00:39:47;;;;;;;13.20;6.00;;;;;;;;;;1497207;39;20028;-62
2021/06/21 00:40:48;;;;;;;15.35;6.28;;;;;;;;;;1497436;39;20027;-61
2021/06/21 00:41:49;;;;;;;21.08;7.18;;;;;;;;;;1497117;39;20032;-61
2021/06/21 00:42:51;;;;;;;16.75;6.32;;;;;;;;;;1497421;39;20031;-62
2021/06/21 00:43:53;;;;;;;21.05;6.45;;;;;;;;;;1497186;39;20033;-62
2021/06/21 00:44:55;;;;;;;15.90;6.13;;;;;;;;;;1497494;39;20031;-61
2021/06/21 00:45:56;;;;;;;20.00;6.22;;;;;;;;;;1497094;39;20023;-62
2021/06/21 00:46:58;;;;;;;17.65;6.15;;;;;;;;;;1497188;39;20035;-61
2021/06/21 00:47:59;;;;;;;20.42;6.50;;;;;;;;;;1497066;39;20095;-62
2021/06/21 00:49:01;;;;;;;16.50;6.00;;;;;;;;;;1497329;39;20037;-62
2021/06/21 00:50:03;;;;;;;14.60;6.20;;;;;;;;;;1497309;39;20387;-62
2021/06/21 00:51:05;;;;;;;16.58;6.20;;;;;;;;;;1497238;39;20042;-62
2021/06/21 00:52:06;;;;;;;19.08;5.80;;;;;;;;;;1497303;39;20027;-62
2021/06/21 00:53:08;;;;;;;14.40;5.95;;;;;;;;;;1497163;39;20298;-60
2021/06/21 00:54:10;;;;;;;15.10;5.53;;;;;;;;;;1497139;39;20298;-60
2021/06/21 00:55:14;;;;;;;13.95;5.10;;;;;;;;;;1497544;39;20104;-61
2021/06/21 00:56:16;;;;;;;14.35;4.93;;;;;;;;;;1497363;39;20027;-62
2021/06/21 00:57:17;;;;;;;12.63;5.13;;;;;;;;;;1496732;39;20031;-62
2021/06/21 00:58:18;;;;;;;13.00;5.00;;;;;;;;;;1496901;39;20307;-61
2021/06/21 00:59:21;;;;;;;10.65;4.63;;;;;;;;;;1497255;39;20034;-62
2021/06/21 01:00:24;;;;;;;13.55;5.18;;;;;;;;;;1497125;39;20401;-62
2021/06/21 01:01:26;;;;;;;14.43;5.15;;;;;;;;;;1497434;39;20100;-62
2021/06/21 01:02:28;;;;;;;13.77;5.25;;;;;;;;;;1496628;39;20058;-62
2021/06/21 01:03:30;;;;;;;16.20;5.70;;;;;;;;;;1496913;39;20039;-62
2021/06/21 01:04:31;;;;;;;17.55;4.95;;;;;;;;;;1497316;39;20141;-62
2021/06/21 01:05:35;;;;;;;14.45;5.22;;;;;;;;;;1497328;39;20039;-61
2021/06/21 01:06:36;;;;;;;14.23;4.55;;;;;;;;;;1497269;39;20027;-62
2021/06/21 01:07:38;;;;;;;16.63;6.07;;;;;;;;;;1497183;39;20031;-62
2021/06/21 01:08:39;;;;;;;14.07;5.93;;;;;;;;;;1496937;39;20126;-61
2021/06/21 01:09:42;;;;;;;13.40;6.28;;;;;;;;;;1497328;39;20035;-62
2021/06/21 01:10:47;;;;;;;13.98;5.05;;;;;;;;;;1497272;39;20087;-62
2021/06/21 01:12:01;;;;;;;17.85;5.63;;;;;;;;;;1497042;39;20353;-62
2021/06/21 01:13:26;;;;;;;18.60;5.85;;;;;;;;;;1497171;39;20379;-62
2021/06/21 01:14:32;;;;;;;18.27;5.93;;;;;;;;;;1497084;39;20038;-61
2021/06/21 01:15:39;;;;;;;19.08;5.82;;;;;;;;;;1497118;39;20031;-62
2021/06/21 01:16:45;;;;;;;14.57;5.97;;;;;;;;;;1497125;39;20302;-62
2021/06/21 01:17:52;;;;;;;15.77;5.45;;;;;;;;;;1497027;39;20483;-62
2021/06/21 01:18:57;;;;;;;17.42;5.68;;;;;;;;;;1497346;39;20035;-61
2021/06/21 01:20:28;;;;;;;17.77;5.95;;;;;;;;;;1497073;39;20063;-62
2021/06/21 01:22:08;;;;;;;15.00;6.07;;;;;;;;;;1485773;39;20033;-62
2021/06/21 01:23:49;;;;;;;18.00;6.10;;;;;;;;;;1497000;39;20401;-62
2021/06/21 01:25:20;;;;;;;13.45;5.13;;;;;;;;;;1497357;39;20036;-62
2021/06/21 01:26:26;;;;;;;14.10;5.32;;;;;;;;;;1496997;39;20401;-62
2021/06/21 01:27:41;;;;;;;15.32;5.25;;;;;;;;;;1497325;39;20028;-62
2021/06/21 01:29:05;;;;;;;19.17;5.90;;;;;;;;;;1497134;39;20111;-61
2021/06/21 01:30:10;;;;;;;14.07;5.53;;;;;;;;;;1492782;39;20136;-62
2021/06/21 01:31:15;;;;;;;17.35;5.38;;;;;;;;;;1497062;39;20071;-62
2021/06/21 01:32:31;;;;;;;12.48;5.40;;;;;;;;;;1497010;39;20035;-62
2021/06/21 01:33:33;;;;;;;20.10;6.15;;;;;;;;;;1497228;39;20028;-62
2021/06/21 01:34:38;;;;;;;13.27;5.55;;;;;;;;;;1496969;39;20391;-62
2021/06/21 01:35:47;;;;;;;11.15;4.80;;;;;;;;;;1496983;39;20479;-62
2021/06/21 01:36:52;;;;;;;15.70;5.57;;;;;;;;;;1497056;39;20027;-62
2021/06/21 01:37:58;;;;;;;13.45;4.80;;;;;;;;;;1497292;39;20034;-62
2021/06/21 01:39:00;;;;;;;17.67;5.82;;;;;;;;;;1497041;39;20054;-62
2021/06/21 01:40:05;;;;;;;17.67;5.65;;;;;;;;;;1497148;39;20034;-62
2021/06/21 01:41:13;;;;;;;16.25;5.32;;;;;;;;;;1496973;39;20387;-62
2021/06/21 01:42:17;;;;;;;13.00;5.53;;;;;;;;;;1497038;39;20071;-62
2021/06/21 01:43:22;;;;;;;17.02;5.55;;;;;;;;;;1497236;39;20023;-62
2021/06/21 01:44:25;;;;;;;15.90;5.95;;;;;;;;;;1497152;39;20106;-62
2021/06/21 01:45:28;;;;;;;16.40;5.93;;;;;;;;;;1497329;39;20031;-62
2021/06/21 01:46:31;;;;;;;16.80;5.90;;;;;;;;;;1497187;39;20027;-62
2021/06/21 01:47:35;;;;;;;15.93;6.40;;;;;;;;;;1497179;39;20031;-61
2021/06/21 01:48:42;;;;;;;16.33;6.18;;;;;;;;;;1496880;39;20418;-61
2021/06/21 01:49:46;;;;;;;17.25;6.55;;;;;;;;;;1497099;39;20383;-61
2021/06/21 01:50:49;;;;;;;19.05;6.82;;;;;;;;;;1497106;39;20383;-61
2021/06/21 01:51:54;;;;;;;17.50;6.65;;;;;;;;;;1496944;39;20054;-62
2021/06/21 01:53:02;;;;;;;15.45;7.07;;;;;;;;;;1497048;39;20388;-61
2021/06/21 01:54:05;;;;;;;16.33;6.40;;;;;;;;;;1497262;39;20039;-61
2021/06/21 01:55:12;;;;;;;17.08;6.80;;;;;;;;;;1497169;39;20023;-62
2021/06/21 01:56:17;;;;;;;16.27;6.32;;;;;;;;;;1497210;39;20079;-61
2021/06/21 01:57:21;;;;;;;13.80;6.00;;;;;;;;;;1497087;39;20368;-61
2021/06/21 01:58:23;;;;;;;18.77;6.82;;;;;;;;;;1497074;39;20035;-61
2021/06/21 01:59:26;;;;;;;17.38;6.50;;;;;;;;;;1497097;39;20039;-60
2021/06/21 02:00:27;;;;;;;15.98;6.25;;;;;;;;;;1496968;39;20031;-61
2021/06/21 02:01:30;;;;;;;13.32;5.95;;;;;;;;;;1496926;39;20039;-61
2021/06/21 02:02:32;;;;;;;18.30;7.03;;;;;;;;;;1497218;39;20069;-61
2021/06/21 02:03:36;;;;;;;14.60;6.38;;;;;;;;;;1497250;39;20085;-61
2021/06/21 02:04:37;;;;;;;16.77;6.53;;;;;;;;;;1496961;39;20027;-62
2021/06/21 02:05:41;;;;;;;19.80;6.32;;;;;;;;;;1497188;39;20108;-62
2021/06/21 02:06:46;;;;;;;19.30;5.90;;;;;;;;;;1497152;39;20100;-62
2021/06/21 02:07:50;;;;;;;13.13;5.45;;;;;;;;;;1496977;39;20045;-61
2021/06/21 02:08:51;;;;;;;15.25;5.35;;;;;;;;;;1497282;39;20038;-61
2021/06/21 02:09:55;;;;;;;10.35;5.28;;;;;;;;;;1497760;39;20038;-62
2021/06/21 02:10:57;;;;;;;15.48;5.25;;;;;;;;;;1497580;39;20280;-62
2021/06/21 02:12:00;;;;;;;14.27;5.70;;;;;;;;;;1497572;39;20085;-62
2021/06/21 02:13:02;;;;;;;15.70;5.78;;;;;;;;;;1497674;39;20032;-62
2021/06/21 02:14:06;;;;;;;13.00;4.95;;;;;;;;;;1497965;39;20039;-62
2021/06/21 02:15:08;;;;;;;18.88;6.22;;;;;;;;;;1497727;39;20027;-61
2021/06/21 02:16:12;;;;;;;17.55;6.50;;;;;;;;;;1497559;39;20407;-60
2021/06/21 02:17:13;;;;;;;17.23;5.95;;;;;;;;;;1497608;39;20030;-60
2021/06/21 02:18:17;;;;;;;16.20;6.13;;;;;;;;;;1497533;39;20031;-60
2021/06/21 02:19:20;;;;;;;16.02;6.05;;;;;;;;;;1497477;39;20027;-61
2021/06/21 02:20:23;;;;;;;16.30;6.22;;;;;;;;;;1497750;39;20034;-62
2021/06/21 02:21:25;;;;;;;15.38;6.18;;;;;;;;;;1497678;39;20028;-61
2021/06/21 02:22:29;;;;;;;17.02;5.97;;;;;;;;;;1497615;39;20034;-61
2021/06/21 02:23:30;;;;;;;17.67;6.35;;;;;;;;;;1497449;39;20027;-61
2021/06/21 02:24:35;;;;;;;14.50;5.50;;;;;;;;;;1497562;39;20067;-61
2021/06/21 02:25:36;;;;;;;13.60;6.03;;;;;;;;;;1497474;39;20392;-62
2021/06/21 02:26:38;;;;;;;17.42;5.85;;;;;;;;;;1497463;39;20035;-61
2021/06/21 02:27:39;;;;;;;16.10;6.50;;;;;;;;;;1497436;39;20027;-62
2021/06/21 02:28:42;;;;;;;15.38;6.00;;;;;;;;;;1497633;39;20032;-61
2021/06/21 02:29:44;;;;;;;15.57;6.20;;;;;;;;;;1497698;39;20024;-61
2021/06/21 02:30:47;;;;;;;13.15;5.88;;;;;;;;;;1497686;39;20034;-62
2021/06/21 02:31:50;;;;;;;14.32;6.00;;;;;;;;;;1497442;39;20027;-62
2021/06/21 02:32:52;;;;;;;15.82;6.50;;;;;;;;;;1497513;39;20035;-60
2021/06/21 02:33:53;;;;;;;16.17;6.20;;;;;;;;;;1497467;39;20023;-62
2021/06/21 02:34:56;;;;;;;15.65;6.38;;;;;;;;;;1497709;39;20043;-62
2021/06/21 02:35:57;;;;;;;18.90;7.15;;;;;;;;;;1497734;39;20035;-62
2021/06/21 02:36:58;;;;;;;18.25;6.95;;;;;;;;;;1497499;39;20344;-61
2021/06/21 02:37:59;;;;;;;18.80;7.28;;;;;;;;;;1497684;39;20039;-61
2021/06/21 02:39:01;;;;;;;20.23;7.03;;;;;;;;;;1497592;39;20319;-62
2021/06/21 02:40:03;;;;;;;18.27;6.30;;;;;;;;;;1497535;39;20019;-61
2021/06/21 02:41:05;;;;;;;14.13;6.93;;;;;;;;;;1497524;39;20459;-62
2021/06/21 02:42:06;;;;;;;19.50;6.53;;;;;;;;;;1497521;39;20304;-62
2021/06/21 02:43:08;;;;;;;16.17;5.88;;;;;;;;;;1497492;39;20031;-62
2021/06/21 02:44:09;;;;;;;16.83;6.35;;;;;;;;;;1497461;39;20279;-62
2021/06/21 02:45:12;;;;;;;20.73;6.78;;;;;;;;;;1497608;39;20038;-62
2021/06/21 02:46:13;;;;;;;19.58;6.55;;;;;;;;;;1497429;39;20032;-62
2021/06/21 02:47:15;;;;;;;15.98;6.07;;;;;;;;;;1497780;39;20034;-62
2021/06/21 02:48:17;;;;;;;13.95;6.22;;;;;;;;;;1497592;39;20072;-61
2021/06/21 02:49:19;;;;;;;15.00;6.13;;;;;;;;;;1497494;39;20085;-62
2021/06/21 02:50:22;;;;;;;20.83;6.95;;;;;;;;;;1497424;39;20034;-62
2021/06/21 02:51:31;;;;;;;18.95;6.63;;;;;;;;;;1497594;39;20045;-62
2021/06/21 02:52:43;;;;;;;17.63;6.50;;;;;;;;;;1497473;39;20311;-62
2021/06/21 02:53:52;;;;;;;16.17;6.18;;;;;;;;;;1497504;39;20035;-62
2021/06/21 02:55:06;;;;;;;17.55;6.00;;;;;;;;;;1497492;39;20079;-62
2021/06/21 02:56:14;;;;;;;19.20;6.65;;;;;;;;;;1497464;39;20035;-60
2021/06/21 02:57:21;;;;;;;15.95;5.65;;;;;;;;;;1497432;39;20030;-62
2021/06/21 02:58:25;;;;;;;15.18;6.20;;;;;;;;;;1497573;39;20072;-61
2021/06/21 02:59:31;;;;;;;18.83;5.60;;;;;;;;;;1497626;39;20035;-62
2021/06/21 03:00:34;;;;;;;12.52;5.38;;;;;;;;;;1497728;39;20059;-60
2021/06/21 03:01:37;;;;;;;16.48;5.50;;;;;;;;;;1497418;39;20391;-62
2021/06/21 03:02:40;;;;;;;15.35;5.45;;;;;;;;;;1497422;39;20306;-62
2021/06/21 03:03:45;;;;;;;14.10;5.88;;;;;;;;;;1497457;39;20361;-62
2021/06/21 03:04:48;;;;;;;15.45;5.90;;;;;;;;;;1497733;39;20038;-60
2021/06/21 03:05:51;;;;;;;13.32;5.53;;;;;;;;;;1497338;39;20031;-61
2021/06/21 03:06:54;;;;;;;17.88;5.80;;;;;;;;;;1497644;39;20038;-62
2021/06/21 03:07:56;;;;;;;12.27;5.63;;;;;;;;;;1497526;39;20024;-62
2021/06/21 03:08:58;;;;;;;15.02;5.63;;;;;;;;;;1497654;39;20042;-61
2021/06/21 03:10:01;;;;;;;12.32;5.72;;;;;;;;;;1497483;39;20053;-60
2021/06/21 03:11:05;;;;;;;15.88;6.43;;;;;;;;;;1497500;39;20032;-60
2021/06/21 03:12:07;;;;;;;18.83;6.25;;;;;;;;;;1497361;39;20031;-60
2021/06/21 03:13:09;;;;;;;15.05;5.85;;;;;;;;;;1497425;39;20036;-62
2021/06/21 03:14:12;;;;;;;18.48;6.82;;;;;;;;;;1497357;39;20034;-62
2021/06/21 03:15:16;;;;;;;19.50;7.00;;;;;;;;;;1497351;39;20306;-62
2021/06/21 03:16:17;;;;;;;14.98;6.20;;;;;;;;;;1497558;39;20027;-62
2021/06/21 03:17:20;;;;;;;19.48;6.60;;;;;;;;;;1497696;39;20023;-62
2021/06/21 03:18:25;;;;;;;16.60;6.28;;;;;;;;;;1497271;39;20031;-60
2021/06/21 03:19:27;;;;;;;14.55;6.45;;;;;;;;;;1497704;39;20035;-62
2021/06/21 03:20:29;;;;;;;13.02;6.05;;;;;;;;;;1496569;39;20031;-62
2021/06/21 03:21:32;;;;;;;17.10;5.82;;;;;;;;;;1497037;39;20035;-62
2021/06/21 03:22:36;;;;;;;16.33;6.55;;;;;;;;;;1497604;39;20027;-62
2021/06/21 03:23:37;;;;;;;13.40;5.72;;;;;;;;;;1497509;39;20023;-62
2021/06/21 03:24:39;;;;;;;16.15;6.45;;;;;;;;;;1497420;39;20050;-62
2021/06/21 03:25:40;;;;;;;17.80;6.10;;;;;;;;;;1497492;39;20030;-61
2021/06/21 03:26:43;;;;;;;19.73;6.10;;;;;;;;;;1497380;39;20032;-60
2021/06/21 03:27:43;;;;;;;15.98;5.78;;;;;;;;;;1497368;39;20318;-62
2021/06/21 03:28:45;;;;;;;16.38;5.65;;;;;;;;;;1497561;39;20036;-61
2021/06/21 03:29:46;;;;;;;15.52;5.65;;;;;;;;;;1497393;39;20023;-60
2021/06/21 03:30:51;;;;;;;13.57;6.18;;;;;;;;;;1497550;39;20028;-62
2021/06/21 03:31:54;;;;;;;16.13;5.40;;;;;;;;;;1497580;39;20028;-60
2021/06/21 03:32:55;;;;;;;13.35;5.85;;;;;;;;;;1497671;39;20047;-61
2021/06/21 03:33:56;;;;;;;12.57;5.20;;;;;;;;;;1497486;39;20035;-62
2021/06/21 03:35:00;;;;;;;12.75;5.47;;;;;;;;;;1497445;39;20048;-62
2021/06/21 03:36:03;;;;;;;11.60;5.20;;;;;;;;;;1497640;39;20039;-62
2021/06/21 03:37:07;;;;;;;16.38;5.90;;;;;;;;;;1497528;39;20039;-62
2021/06/21 03:38:10;;;;;;;16.90;5.20;;;;;;;;;;1497359;39;20031;-62
2021/06/21 03:39:12;;;;;;;14.52;5.65;;;;;;;;;;1497660;39;20033;-62
2021/06/21 03:40:13;;;;;;;16.50;5.40;;;;;;;;;;1497408;39;20031;-61
2021/06/21 03:41:15;;;;;;;17.50;5.60;;;;;;;;;;1497276;39;20035;-61
2021/06/21 03:42:16;;;;;;;18.67;6.18;;;;;;;;;;1497331;39;20024;-60
2021/06/21 03:43:20;;;;;;;15.25;5.63;;;;;;;;;;1497528;39;20028;-62
2021/06/21 03:44:21;;;;;;;12.15;5.30;;;;;;;;;;1497302;39;20054;-62
2021/06/21 03:45:23;;;;;;;15.38;5.88;;;;;;;;;;1497593;39;20103;-62
2021/06/21 03:46:24;;;;;;;13.70;5.13;;;;;;;;;;1497363;39;20027;-62
2021/06/21 03:47:25;;;;;;;14.55;5.03;;;;;;;;;;1497288;39;20027;-61
2021/06/21 03:48:27;;;;;;;15.15;5.57;;;;;;;;;;1497203;39;20383;-60
2021/06/21 03:49:29;;;;;;;14.68;5.18;;;;;;;;;;1497323;39;20023;-62
2021/06/21 03:50:31;;;;;;;19.15;5.22;;;;;;;;;;1497299;39;20023;-61
2021/06/21 03:51:33;;;;;;;18.27;4.88;;;;;;;;;;1497318;39;20030;-61
2021/06/21 03:52:35;;;;;;;14.52;5.43;;;;;;;;;;1497512;39;20034;-62
2021/06/21 03:53:37;;;;;;;12.43;5.82;;;;;;;;;;1497621;39;20036;-61
2021/06/21 03:54:38;;;;;;;16.73;5.70;;;;;;;;;;1497610;39;20075;-62
2021/06/21 03:55:40;;;;;;;15.82;5.68;;;;;;;;;;1497575;39;20039;-62
2021/06/21 03:56:41;;;;;;;18.00;5.30;;;;;;;;;;1497336;39;20028;-62
2021/06/21 03:57:45;;;;;;;14.85;5.80;;;;;;;;;;1497583;39;20100;-62
2021/06/21 03:58:48;;;;;;;13.85;5.30;;;;;;;;;;1497133;39;20344;-61
2021/06/21 03:59:50;;;;;;;14.27;5.03;;;;;;;;;;1497499;39;20100;-61
2021/06/21 04:00:51;;;;;;;15.50;5.43;;;;;;;;;;1497240;39;20483;-60
2021/06/21 04:01:55;;;;;;;13.73;4.75;;;;;;;;;;1497482;39;20108;-61
2021/06/21 04:02:57;;;;;;;14.68;5.40;;;;;;;;;;1497483;39;20024;-62
2021/06/21 04:03:59;;;;;;;15.00;5.10;;;;;;;;;;1497518;39;20027;-60
2021/06/21 04:05:00;;;;;;;15.15;5.18;;;;;;;;;;1497473;39;20030;-60
2021/06/21 04:06:02;;;;;;;19.23;5.50;;;;;;;;;;1497290;39;20054;-60
2021/06/21 04:07:05;;;;;;;16.27;5.68;;;;;;;;;;1497377;39;20034;-62
2021/06/21 04:08:10;;;;;;;16.00;5.00;;;;;;;;;;1497555;39;20023;-62
2021/06/21 04:09:11;;;;;;;15.48;5.03;;;;;;;;;;1497174;39;20057;-62
2021/06/21 04:10:15;;;;;;;16.15;5.38;;;;;;;;;;1497380;39;20399;-62
2021/06/21 04:11:18;;;;;;;12.60;4.70;;;;;;;;;;1497237;39;20032;-62
2021/06/21 04:12:19;;;;;;;12.05;4.60;;;;;;;;;;1497545;39;20195;-62
2021/06/21 04:13:21;;;;;;;15.63;4.72;;;;;;;;;;1497224;39;20135;-62
2021/06/21 04:14:22;;;;;;;17.75;5.63;;;;;;;;;;1497288;39;20050;-61
2021/06/21 04:15:28;;;;;;;14.93;4.90;;;;;;;;;;1497353;39;20028;-62
2021/06/21 04:16:29;;;;;;;15.45;5.20;;;;;;;;;;1497246;39;20031;-61
2021/06/21 04:17:30;;;;;;;14.27;4.93;;;;;;;;;;1497461;39;20028;-62
2021/06/21 04:18:31;;;;;;;15.90;5.20;;;;;;;;;;1497174;39;20429;-62
2021/06/21 04:19:33;;;;;;;13.65;4.70;;;;;;;;;;1497399;39;20023;-62
2021/06/21 04:20:34;;;;;;;14.63;5.15;;;;;;;;;;1497371;39;20027;-62
2021/06/21 04:21:36;;;;;;;11.35;4.38;;;;;;;;;;1497245;39;20038;-61
2021/06/21 04:22:38;;;;;;;15.23;4.90;;;;;;;;;;1497206;39;20440;-62
2021/06/21 04:23:41;;;;;;;12.63;4.15;;;;;;;;;;1497462;39;20104;-62
2021/06/21 04:24:42;;;;;;;15.35;4.63;;;;;;;;;;1497413;39;20032;-61
2021/06/21 04:25:44;;;;;;;15.65;4.47;;;;;;;;;;1497513;39;20024;-61
2021/06/21 04:26:45;;;;;;;15.05;4.85;;;;;;;;;;1497184;39;20027;-61
2021/06/21 04:27:48;;;;;;;12.77;4.10;;;;;;;;;;1497368;39;20028;-62
2021/06/21 04:28:50;;;;;;;17.13;4.80;;;;;;;;;;1497157;39;20039;-61
2021/06/21 04:29:50;;;;;;;17.65;4.65;;;;;;;;;;1497147;39;20413;-62
2021/06/21 04:30:52;;;;;;;13.85;4.55;;;;;;;;;;1497262;39;20038;-62
2021/06/21 04:31:53;;;;;;;15.23;4.55;;;;;;;;;;1497324;39;20031;-62
2021/06/21 04:32:55;;;;;;;15.25;4.18;;;;;;;;;;1497270;39;20033;-62
2021/06/21 04:33:56;;;;;;;15.68;5.20;;;;;;;;;;1497317;39;20023;-62
2021/06/21 04:34:58;;;;;;;12.15;4.40;;;;;;;;;;1497449;39;20047;-62
2021/06/21 04:35:59;;;;;;;13.15;4.47;;;;;;;;;;1497467;39;20027;-61
2021/06/21 04:37:00;;;;;;;14.68;4.80;;;;;;;;;;1497426;39;20023;-62
2021/06/21 04:38:02;;;;;;;13.02;4.88;;;;;;;;;;1497166;39;20027;-62
2021/06/21 04:39:06;;;;;;;18.23;5.05;;;;;;;;;;1497257;39;20062;-61
2021/06/21 04:40:09;;;;;;;14.40;4.97;;;;;;;;;;1497327;39;20024;-61
2021/06/21 04:41:10;;;;;;;12.82;4.90;;;;;;;;;;1497450;39;20063;-62
2021/06/21 04:42:11;;;;;;;15.50;4.68;;;;;;;;;;1497348;39;20035;-62
2021/06/21 04:43:13;;;;;;;16.20;4.60;;;;;;;;;;1497298;39;20031;-62
2021/06/21 04:44:14;;;;;;;13.45;4.20;;;;;;;;;;1497282;39;20042;-61
2021/06/21 04:45:16;;;;;;;12.77;4.55;;;;;;;;;;1497243;39;20067;-61
2021/06/21 04:46:17;;;;;;;12.63;4.32;;;;;;;;;;1497301;39;20145;-62
2021/06/21 04:47:23;;;;;;;15.65;4.47;;;;;;;;;;1497127;39;20043;-62
2021/06/21 04:48:24;;;;;;;17.17;5.20;;;;;;;;;;1497347;39;20031;-61
2021/06/21 04:49:26;;;;;;;15.43;4.60;;;;;;;;;;1497245;39;20039;-61
2021/06/21 04:50:27;;;;;;;13.10;3.45;;;;;;;;;;1497216;39;20023;-62
2021/06/21 04:51:32;;;;;;;15.50;4.40;;;;;;;;;;1497403;39;20034;-60
2021/06/21 04:52:34;;;;;;;16.65;4.35;;;;;;;;;;1497432;39;20027;-62
2021/06/21 04:53:36;;;;;;;15.32;4.18;;;;;;;;;;1497220;39;20027;-62
2021/06/21 04:54:38;;;;;;;14.05;4.68;;;;;;;;;;1497126;39;20512;-61
2021/06/21 04:55:40;;;;;;;14.43;4.13;;;;;;;;;;1497168;39;20375;-62
2021/06/21 04:56:41;;;;;;;14.70;4.75;;;;;;;;;;1497296;39;20034;-62
2021/06/21 04:57:43;;;;;;;13.18;4.13;;;;;;;;;;1497174;39;20327;-60
2021/06/21 04:58:44;;;;;;;10.23;3.95;;;;;;;;;;1497320;39;20035;-61
2021/06/21 04:59:46;;;;;;;12.98;3.95;;;;;;;;;;1497486;39;20120;-61
2021/06/21 05:00:47;;;;;;;16.40;4.47;;;;;;;;;;1497286;39;20030;-62
2021/06/21 05:01:49;;;;;;;13.32;4.28;;;;;;;;;;1497431;39;20023;-62
2021/06/21 05:02:50;;;;;;;13.55;4.80;;;;;;;;;;1497199;39;20276;-62
2021/06/21 05:03:52;;;;;;;19.33;4.32;;;;;;;;;;1497124;39;20035;-62
2021/06/21 05:04:53;;;;;;;11.38;4.18;;;;;;;;;;1497149;39;20053;-62
2021/06/21 05:05:56;;;;;;;13.65;4.32;;;;;;;;;;1497271;39;20031;-62
2021/06/21 05:06:57;;;;;;;10.52;4.05;;;;;;;;;;1497153;39;20413;-62
2021/06/21 05:07:59;;;;;;;12.00;3.90;;;;;;;;;;1497288;39;20112;-61
2021/06/21 05:09:00;;;;;;;13.85;4.40;;;;;;;;;;1497305;39;20027;-62
2021/06/21 05:10:04;;;;;;;12.75;4.10;;;;;;;;;;1497126;39;20236;-62
2021/06/21 05:11:06;;;;;;;13.65;4.35;;;;;;;;;;1497407;39;20069;-62
2021/06/21 05:12:08;;;;;;;11.80;3.47;;;;;;;;;;1497330;39;20023;-62
2021/06/21 05:13:09;;;;;;;13.15;3.80;;;;;;;;;;1497261;39;20290;-62
2021/06/21 05:14:11;;;;;;;16.08;4.00;;;;;;;;;;1497168;39;20276;-62
2021/06/21 05:15:14;;;;;;;16.38;4.38;;;;;;;;;;1497148;39;20038;-61
2021/06/21 05:16:16;;;;;;;15.90;4.30;;;;;;;;;;1497248;39;20024;-60
2021/06/21 05:17:18;;;;;;;14.15;4.38;;;;;;;;;;1497333;39;20028;-62
2021/06/21 05:18:18;;;;;;;12.30;3.90;;;;;;;;;;1497213;39;20027;-62
2021/06/21 05:19:20;;;;;;;13.45;3.67;;;;;;;;;;1497165;39;20028;-62
2021/06/21 05:20:21;;;;;;;12.02;4.10;;;;;;;;;;1497021;39;20027;-62
2021/06/21 05:21:23;;;;;;;10.35;3.80;;;;;;;;;;1497384;39;20031;-61
2021/06/21 05:22:24;;;;;;;14.13;3.80;;;;;;;;;;1497185;39;20054;-62
2021/06/21 05:23:26;;;;;;;14.02;3.95;;;;;;;;;;1497193;39;20027;-62
2021/06/21 05:24:27;;;;;;;13.73;4.15;;;;;;;;;;1497362;39;20034;-62
2021/06/21 05:25:33;;;;;;;11.63;3.85;;;;;;;;;;1497144;39;20287;-62
2021/06/21 05:26:33;;;;;;;12.05;4.13;;;;;;;;;;1497053;39;20027;-62
2021/06/21 05:27:35;;;;;;;12.63;3.78;;;;;;;;;;1497037;39;20042;-62
2021/06/21 05:28:36;;;;;;;11.00;4.10;;;;;;;;;;1497094;39;20294;-60
2021/06/21 05:29:38;;;;;;;13.93;3.90;;;;;;;;;;1496966;39;20035;-62
2021/06/21 05:30:39;;;;;;;15.13;3.92;;;;;;;;;;1497012;39;20028;-62
2021/06/21 05:31:41;;;;;;;12.88;3.63;;;;;;;;;;1497091;39;20027;-62
2021/06/21 05:32:43;;;;;;;11.60;3.80;;;;;;;;;;1497230;39;20283;-62
2021/06/21 05:33:44;;;;;;;13.02;3.92;;;;;;;;;;1497042;39;20034;-61
2021/06/21 05:34:45;;;;;;;7.35;3.20;;;;;;;;;;1497026;39;20031;-62
2021/06/21 05:35:46;;;;;;;11.80;4.07;;;;;;;;;;1497041;39;20034;-62
2021/06/21 05:36:49;;;;;;;12.38;3.95;;;;;;;;;;1497302;39;20035;-62
2021/06/21 05:37:50;;;;;;;15.25;4.32;;;;;;;;;;1496979;39;20312;-62
2021/06/21 05:38:52;;;;;;;14.13;3.85;;;;;;;;;;1497124;39;20042;-61
2021/06/21 05:39:52;;;;;;;11.20;3.30;;;;;;;;;;1496956;39;20028;-62
2021/06/21 05:40:56;;;;;;;13.43;3.97;;;;;;;;;;1497043;39;20031;-62
2021/06/21 05:41:57;;;;;;;12.23;3.70;;;;;;;;;;1496926;39;20386;-62
2021/06/21 05:42:58;;;;;;;13.50;3.70;;;;;;;;;;1497005;39;20034;-61
2021/06/21 05:43:59;;;;;;;13.52;3.92;;;;;;;;;;1496922;39;20030;-60
2021/06/21 05:45:02;;;;;;;9.30;3.83;;;;;;;;;;1497033;39;20406;-62
2021/06/21 05:46:03;;;;;;;11.45;3.95;;;;;;;;;;1496920;39;20034;-62
2021/06/21 05:47:05;;;;;;;14.40;3.78;;;;;;;;;;1497043;39;20031;-62
2021/06/21 05:48:07;;;;;;;12.27;3.80;;;;;;;;;;1497298;39;20031;-61
2021/06/21 05:49:09;;;;;;;14.00;3.80;;;;;;;;;;1497201;39;20028;-62
2021/06/21 05:50:11;;;;;;;14.85;4.30;;;;;;;;;;1496960;39;20031;-62
2021/06/21 05:51:12;;;;;;;9.73;3.10;;;;;;;;;;1497244;39;20035;-62
2021/06/21 05:52:13;;;;;;;10.43;3.40;;;;;;;;;;1496946;39;20391;-62
2021/06/21 05:53:15;;;;;;;10.77;3.67;;;;;;;;;;1497061;39;20027;-62
2021/06/21 05:54:16;;;;;;;10.32;3.10;;;;;;;;;;1496988;39;20391;-62
2021/06/21 05:55:19;;;;;;;10.90;3.60;;;;;;;;;;1497264;39;20028;-62
2021/06/21 05:56:21;;;;;;;10.23;3.15;;;;;;;;;;1497214;39;20032;-62
2021/06/21 05:57:23;;;;;;;14.02;3.60;;;;;;;;;;1496931;39;20024;-62
2021/06/21 05:58:24;;;;;;;12.65;3.42;;;;;;;;;;1496956;39;20063;-61
2021/06/21 05:59:26;;;;;;;12.43;3.40;;;;;;;;;;1497020;39;20035;-62
2021/06/21 06:00:27;;;;;;;11.88;3.83;;;;;;;;;;1496917;39;20024;-61
2021/06/21 06:01:29;;;;;;;15.27;3.75;;;;;;;;;;1497083;39;20395;-62
2021/06/21 06:02:30;;;;;;;11.82;3.55;;;;;;;;;;1496943;39;20306;-60
2021/06/21 06:03:31;;;;;;;16.17;3.83;;;;;;;;;;1497189;39;20038;-62
2021/06/21 06:04:32;;;;;;;12.95;3.47;;;;;;;;;;1496920;39;20027;-61
2021/06/21 06:05:34;;;;;;;15.00;3.30;;;;;;;;;;1497117;39;20035;-62
2021/06/21 06:06:35;;;;;;;9.82;3.33;;;;;;;;;;1496894;39;20028;-62
2021/06/21 06:07:37;;;;;;;13.60;3.45;;;;;;;;;;1497070;39;20030;-62
2021/06/21 06:08:37;;;;;;;13.50;3.55;;;;;;;;;;1497016;39;20038;-61
2021/06/21 06:09:39;;;;;;;12.75;3.13;;;;;;;;;;1496904;39;20023;-62
2021/06/21 06:10:40;;;;;;;9.30;3.15;;;;;;;;;;1497066;39;20042;-62
2021/06/21 06:11:43;;;;;;;11.75;3.40;;;;;;;;;;1497152;39;20028;-62
2021/06/21 06:12:44;;;;;;;12.95;3.35;;;;;;;;;;1497069;39;20023;-60